Decoded Metar for KANJ (SAULT STE MARIE in MI, USA) (IATA:ANJ) | Meteo·Mobile Aviation Weather
aviador You're here:

KANJ Decoded Metar

SAULT STE MARIE in MI, USA
Report Time2019-01-19 01:55:00
UTC Time2019-01-19 02:40:52
Flight Rules vfr VFR
Wind040° at 04 kt
W.Decomp.*RWY 32: 0.2 kt HW 4.0 kt RCW
W.Rank040° ranks 36
Current wind is below 040° avg. (5.0)
Visibility9999 m
Phenomena:N/A
Clouds:N/A
Expected CloudBase > 2,400 ft AGL from Temp-Dew spread
CeilingNone
Temp-17°C (ISA -31)
Dew Point-23°C (60% RH)
AAT-22.1°C
QNH1027 hPa
Density Alt-3,632 ft
Elevation715 ft
Report Wrong Elevation
Raw Report
KANJ 190155Z AUTO 04004KT 10SM CLR M17/M23 A3033 RMK AO2 SLP286
T11671233=

Extra information for KANJ:More info

Metar Taf Metar & Taf Last 4 Metars F.Rules Stats Wind Profile Meteogram Temp Stats Airport Information Weather charts Add Link Nearby VenuesMetar ALERT Operation Metar Decoded Social comments

AIRNAV info for KANJ